Terminal Aerodrome Forecast
Issued by NWS Knoxville/Tri Cities, TN

Home | Current Version | Previous Version | Text Only | Print | Product List | Glossary On
Versions: 1 2 3 4 5 6 7 8 9 10 11 12 13 14
000
FTUS44 KMRX 171120
TAFTYS
TAF
KTYS 171120Z 1712/1812 00000KT P6SM BKN150
     FM171400 VRB04KT P6SM VCSH SCT040 BKN080
     FM171600 23004KT P6SM -SHRA SCT025 OVC035
     FM172100 27003KT P6SM OVC035
     FM180600 VRB03KT 3SM BR OVC025=

USA.gov is the U.S. government's official web portal to all federal, state and local government web resources and services.